LDM3WC EDDN-LEIB
Flight info
| Callsign | LDM3WC |
|---|---|
| Flight time | N/A |
| Altitude | 35000 |
| Route | BOLSI1G BOLSI Y166 DKB N869 NATOR DCT LUTIX/N0441F370 DCT BENOT DCT NEMOS DCT GEVEA DCT INCUS DCT BALSI DCT RETNO DCT TUPOX DCT MTG DCT DIVKO DCT VATIR N852 PIVUS Z237 SULID DCT DIMIB DCT POS |
| Aircraft | A320/M-SDE3FGHIRWY/LB1 |
Departure
| Time | 2026-04-27 17:40 |
|---|---|
| Airport | Nuremberg Airport (EDDN) |
Arrival
| Time | N/A |
|---|---|
| Airport | Ibiza Airport (LEIB) |
| Time | Latitude | Longitude | Altitude | Speed | Heading |
|---|---|---|---|---|---|
| 2026-04-27 16:56 | 49.49518 | 11.07791 | 1024 ft | 0 kts | 188° |
| 2026-04-27 17:32 | 49.49537 | 11.07794 | 1024 ft | 4 kts | 183° |
| 2026-04-27 17:32 | 49.49563 | 11.07793 | 1026 ft | 4 kts | 164° |
| 2026-04-27 17:33 | 49.49584 | 11.07776 | 1025 ft | 4 kts | 111° |
| 2026-04-27 17:33 | 49.49586 | 11.07767 | 1025 ft | 0 kts | 98° |
| 2026-04-27 17:35 | 49.49584 | 11.07787 | 1027 ft | 4 kts | 98° |
| 2026-04-27 17:36 | 49.49577 | 11.07853 | 1027 ft | 8 kts | 98° |
| 2026-04-27 17:36 | 49.49566 | 11.07967 | 1027 ft | 13 kts | 98° |
| 2026-04-27 17:36 | 49.49551 | 11.08118 | 1028 ft | 15 kts | 98° |
| 2026-04-27 17:36 | 49.49536 | 11.08275 | 1028 ft | 15 kts | 96° |
| 2026-04-27 17:37 | 49.49590 | 11.08358 | 1032 ft | 11 kts | 24° |
| 2026-04-27 17:37 | 49.49615 | 11.08448 | 1034 ft | 10 kts | 104° |
| 2026-04-27 17:37 | 49.49603 | 11.08562 | 1035 ft | 10 kts | 98° |
| 2026-04-27 17:37 | 49.49594 | 11.08657 | 1036 ft | 7 kts | 98° |
| 2026-04-27 17:38 | 49.49588 | 11.08725 | 1037 ft | 6 kts | 98° |
| 2026-04-27 17:38 | 49.49579 | 11.08823 | 1037 ft | 12 kts | 98° |
| 2026-04-27 17:38 | 49.49565 | 11.08979 | 1039 ft | 16 kts | 98° |
| 2026-04-27 17:38 | 49.49546 | 11.09154 | 1042 ft | 17 kts | 99° |
| 2026-04-27 17:39 | 49.49530 | 11.09333 | 1045 ft | 17 kts | 86° |
| 2026-04-27 17:39 | 49.49591 | 11.09484 | 1049 ft | 17 kts | 52° |
| 2026-04-27 17:39 | 49.49677 | 11.09564 | 1052 ft | 11 kts | 358° |
| 2026-04-27 17:39 | 49.49710 | 11.09423 | 1050 ft | 33 kts | 276° |
| 2026-04-27 17:40 | 49.49785 | 11.08672 | 1039 ft | 106 kts | 278° |
| 2026-04-27 17:40 | 49.49928 | 11.07222 | 1027 ft | 162 kts | 279° |
| 2026-04-27 17:40 | 49.50087 | 11.05512 | 1631 ft | 159 kts | 280° |
| 2026-04-27 17:40 | 49.50245 | 11.03842 | 2284 ft | 158 kts | 281° |
| 2026-04-27 17:41 | 49.50417 | 11.02061 | 2564 ft | 178 kts | 280° |
| 2026-04-27 17:41 | 49.50599 | 11.00083 | 2921 ft | 195 kts | 280° |
| 2026-04-27 17:41 | 49.50798 | 10.97934 | 3299 ft | 210 kts | 279° |
| 2026-04-27 17:41 | 49.51017 | 10.95607 | 3616 ft | 230 kts | 279° |
| 2026-04-27 17:42 | 49.51195 | 10.93024 | 3949 ft | 252 kts | 264° |
| 2026-04-27 17:42 | 49.50670 | 10.90516 | 4919 ft | 246 kts | 245° |
| 2026-04-27 17:42 | 49.49854 | 10.88219 | 5750 ft | 246 kts | 231° |
| 2026-04-27 17:42 | 49.48763 | 10.86184 | 6594 ft | 245 kts | 230° |
| 2026-04-27 17:43 | 49.47611 | 10.84077 | 7025 ft | 266 kts | 230° |
| 2026-04-27 17:43 | 49.46391 | 10.81860 | 7610 ft | 276 kts | 230° |
| 2026-04-27 17:43 | 49.45143 | 10.79596 | 8403 ft | 279 kts | 230° |
| 2026-04-27 17:43 | 49.43891 | 10.77322 | 9186 ft | 282 kts | 231° |
| 2026-04-27 17:44 | 49.42611 | 10.74989 | 10001 ft | 285 kts | 231° |
| 2026-04-27 17:44 | 49.41318 | 10.72625 | 10518 ft | 298 kts | 231° |
| 2026-04-27 17:44 | 49.39930 | 10.70087 | 10716 ft | 321 kts | 231° |
| 2026-04-27 17:44 | 49.38463 | 10.67412 | 11148 ft | 333 kts | 231° |
| 2026-04-27 17:45 | 49.36958 | 10.64676 | 11805 ft | 337 kts | 231° |
| 2026-04-27 17:45 | 49.35435 | 10.61915 | 12535 ft | 340 kts | 232° |
| 2026-04-27 17:45 | 49.33896 | 10.59129 | 13259 ft | 343 kts | 232° |
| 2026-04-27 17:45 | 49.32346 | 10.56326 | 13972 ft | 346 kts | 232° |
| 2026-04-27 17:46 | 49.30783 | 10.53505 | 14596 ft | 349 kts | 232° |
| 2026-04-27 17:46 | 49.29209 | 10.50667 | 15209 ft | 351 kts | 232° |
| 2026-04-27 17:46 | 49.27623 | 10.47806 | 15820 ft | 354 kts | 232° |
| 2026-04-27 17:46 | 49.26025 | 10.44916 | 16414 ft | 357 kts | 232° |
| 2026-04-27 17:47 | 49.24411 | 10.42001 | 17014 ft | 360 kts | 232° |
| 2026-04-27 17:47 | 49.23314 | 10.40024 | 17421 ft | 362 kts | 232° |
| 2026-04-27 17:47 | 49.21147 | 10.36129 | 18206 ft | 365 kts | 232° |
| 2026-04-27 17:47 | 49.19468 | 10.33123 | 18773 ft | 368 kts | 232° |
| 2026-04-27 17:48 | 49.17820 | 10.30175 | 19286 ft | 370 kts | 232° |
| 2026-04-27 17:48 | 49.16126 | 10.27140 | 19821 ft | 372 kts | 232° |
| 2026-04-27 17:48 | 49.14442 | 10.24124 | 20355 ft | 374 kts | 233° |
| 2026-04-27 17:48 | 49.12767 | 10.21072 | 20889 ft | 376 kts | 234° |
| 2026-04-27 17:49 | 49.11117 | 10.17966 | 21431 ft | 378 kts | 234° |
| 2026-04-27 17:49 | 49.09473 | 10.14821 | 21964 ft | 380 kts | 234° |
| 2026-04-27 17:49 | 49.07829 | 10.11663 | 22456 ft | 382 kts | 234° |
| 2026-04-27 17:49 | 49.06169 | 10.08477 | 22945 ft | 385 kts | 234° |
| 2026-04-27 17:50 | 49.04495 | 10.05281 | 23437 ft | 387 kts | 234° |
| 2026-04-27 17:50 | 49.01072 | 9.98813 | 24269 ft | 392 kts | 234° |
| 2026-04-27 17:50 | 48.99352 | 9.95584 | 24661 ft | 393 kts | 234° |
| 2026-04-27 17:51 | 48.97623 | 9.92345 | 25038 ft | 395 kts | 234° |
| 2026-04-27 17:51 | 48.95888 | 9.89087 | 25415 ft | 397 kts | 234° |
| 2026-04-27 17:51 | 48.94145 | 9.85814 | 25775 ft | 399 kts | 234° |
| 2026-04-27 17:51 | 48.92394 | 9.82530 | 26125 ft | 401 kts | 234° |
| 2026-04-27 17:52 | 48.90633 | 9.79237 | 26471 ft | 402 kts | 235° |
| 2026-04-27 17:52 | 48.88864 | 9.75932 | 26805 ft | 404 kts | 234° |
| 2026-04-27 17:52 | 48.87082 | 9.72605 | 27118 ft | 407 kts | 234° |
| 2026-04-27 17:52 | 48.85874 | 9.70354 | 27336 ft | 408 kts | 234° |
| 2026-04-27 17:53 | 48.83492 | 9.65913 | 27769 ft | 411 kts | 234° |
| 2026-04-27 17:53 | 48.81675 | 9.62535 | 28114 ft | 412 kts | 234° |
| 2026-04-27 17:53 | 48.79839 | 9.59124 | 28451 ft | 414 kts | 234° |
| 2026-04-27 17:53 | 48.78032 | 9.55776 | 28749 ft | 415 kts | 234° |
| 2026-04-27 17:54 | 48.76180 | 9.52352 | 29056 ft | 417 kts | 234° |
| 2026-04-27 17:54 | 48.74338 | 9.48948 | 29347 ft | 419 kts | 234° |
| 2026-04-27 17:54 | 48.72491 | 9.45530 | 29625 ft | 420 kts | 234° |
| 2026-04-27 17:54 | 48.70636 | 9.42101 | 29894 ft | 422 kts | 234° |
| 2026-04-27 17:55 | 48.68772 | 9.38659 | 30136 ft | 424 kts | 234° |
| 2026-04-27 17:55 | 48.66898 | 9.35200 | 30348 ft | 426 kts | 234° |
| 2026-04-27 17:55 | 48.65013 | 9.31731 | 30561 ft | 427 kts | 234° |
| 2026-04-27 17:55 | 48.63121 | 9.28260 | 30779 ft | 428 kts | 234° |
| 2026-04-27 17:56 | 48.61231 | 9.24760 | 31000 ft | 428 kts | 236° |
| 2026-04-27 17:56 | 48.59445 | 9.21199 | 31304 ft | 426 kts | 238° |
| 2026-04-27 17:56 | 48.57734 | 9.17567 | 31623 ft | 423 kts | 239° |
| 2026-04-27 17:56 | 48.56066 | 9.13918 | 31943 ft | 421 kts | 239° |
| 2026-04-27 17:57 | 48.54413 | 9.10284 | 32267 ft | 419 kts | 239° |
| 2026-04-27 17:57 | 48.52757 | 9.06681 | 32623 ft | 416 kts | 239° |
| 2026-04-27 17:57 | 48.51097 | 9.03119 | 32950 ft | 414 kts | 239° |
| 2026-04-27 17:57 | 48.49429 | 8.99585 | 33270 ft | 413 kts | 239° |
| 2026-04-27 17:58 | 48.47736 | 8.96027 | 33590 ft | 411 kts | 239° |
| 2026-04-27 17:58 | 48.46072 | 8.92540 | 33907 ft | 409 kts | 239° |
| 2026-04-27 17:58 | 48.44412 | 8.89061 | 34209 ft | 408 kts | 239° |
| 2026-04-27 17:58 | 48.42759 | 8.85603 | 34459 ft | 407 kts | 239° |
| 2026-04-27 17:59 | 48.41107 | 8.82147 | 34676 ft | 407 kts | 239° |
| 2026-04-27 17:59 | 48.39452 | 8.78681 | 34874 ft | 407 kts | 239° |
| 2026-04-27 17:59 | 48.37802 | 8.75229 | 35062 ft | 407 kts | 239° |
| 2026-04-27 17:59 | 48.36150 | 8.71775 | 35120 ft | 406 kts | 239° |
| 2026-04-27 18:00 | 48.32861 | 8.64919 | 35127 ft | 404 kts | 239° |
| 2026-04-27 18:00 | 48.29570 | 8.58083 | 35125 ft | 403 kts | 238° |
| 2026-04-27 18:01 | 48.27379 | 8.53535 | 35121 ft | 402 kts | 238° |